Marco Polo — C6JZ7 — position and weather

sailwx.info

Track history (hours):
 
Tides and Currents Weather Stations Pressure Air Temp Water Temp Dewpoint Dewpoint Depression Visibility Wind Speed Wind Dir Waves Ship Positions

Marco Polo

Operator: Orient Lines

Last reported at 2018-Dec-13 12:30 UTC. Time now 2018-Dec-13 12:58 UTC.
Position N 49°58' W 003°19'.

Type: Ship. MMSI: 308691456.

Date/timePositionNaut miles runAvg speedWind from/ knotsBaromVisibWave heightAir tempDewpointWater temp
2018-Dec-13 12:30N 49°58' W 003°19'713.2
2018-Dec-13 12:00N 49°59' W 003°09'713.2
2018-Dec-13 11:30N 49°59' W 002°58'612.7
2018-Dec-13 11:00N 49°59' W 002°49'612.2
2018-Dec-13 10:30N 50°01' W 002°39'1711.2
2018-Dec-13 09:00N 50°02' W 002°13'712.5
2018-Dec-13 08:24N 49°59' W 002°03'512.8
2018-Dec-13 08:00N 49°58' W 001°55'713.3
2018-Dec-13 07:30N 49°56' W 001°45'713.7
2018-Dec-13 07:00N 49°54' W 001°35'714.8
2018-Dec-13 06:30N 49°51' W 001°24'815.6
2018-Dec-13 06:00N 49°48' W 001°13'815.3
2018-Dec-13 05:31N 49°45' W 001°02'815.0
2018-Dec-13 04:59N 49°42' W 000°51'1014.9
2018-Dec-13 04:20N 49°38' W 000°37'514.6
2018-Dec-13 04:00N 49°36' W 000°31'714.3
2018-Dec-13 03:30N 49°33' W 000°21'714.0
2018-Dec-13 03:00N 49°30' W 000°11'713.6
2018-Dec-13 02:31N 49°28' W 000°01'612.6
2018-Dec-13 02:00N 49°26' E 000°08'4 7.7
2018-Dec-13 01:30N 49°26' E 000°14'0 0.0
2018-Dec-13 01:00N 49°26' E 000°14'0 0.0
2018-Dec-13 00:30N 49°26' E 000°14'0 0.0
2018-Dec-13 00:00N 49°26' E 000°14'0 0.0
2018-Dec-12 23:30N 49°26' E 000°14'0 0.0
2018-Dec-12 23:00N 49°26' E 000°14'0 0.0
2018-Dec-12 22:30N 49°26' E 000°14'0 0.0
2018-Dec-12 22:00N 49°26' E 000°14'0 0.0
2018-Dec-12 21:27N 49°26' E 000°14'0 0.0
2018-Dec-12 21:00N 49°26' E 000°14'0 0.0
2018-Dec-12 20:30N 49°26' E 000°14'0 0.0
2018-Dec-12 20:00N 49°26' E 000°14'0 0.0
2018-Dec-12 19:30N 49°26' E 000°14'0 0.0
2018-Dec-12 19:00N 49°26' E 000°14'0 0.0
2018-Dec-12 18:30N 49°26' E 000°14'0 0.0
2018-Dec-12 18:00N 49°26' E 000°14'0 0.0
2018-Dec-12 17:30N 49°26' E 000°14'0 0.0
2018-Dec-12 17:00N 49°26' E 000°14'0 0.0
2018-Dec-12 16:30N 49°26' E 000°14'0 0.0
2018-Dec-12 16:00N 49°26' E 000°14'0 0.0
2018-Dec-12 15:30N 49°26' E 000°14'0 0.0
2018-Dec-12 15:00N 49°26' E 000°14'0 0.0
2018-Dec-12 14:30N 49°26' E 000°14'0 0.0
2018-Dec-12 14:00N 49°26' E 000°14'0 0.0
2018-Dec-12 13:30N 49°26' E 000°14'0 0.0
2018-Dec-12 13:00N 49°26' E 000°14'0 0.0
2018-Dec-12 12:27N 49°26' E 000°14'0 0.0
2018-Dec-12 11:57N 49°26' E 000°14'0 0.0
2018-Dec-12 11:30N 49°26' E 000°14'0 0.0
2018-Dec-12 10:57N 49°26' E 000°14'0 0.0
2018-Dec-12 10:30N 49°26' E 000°14'0 0.0
2018-Dec-12 10:00N 49°26' E 000°14'0 0.0
2018-Dec-12 09:30N 49°26' E 000°14'0 0.0
2018-Dec-12 09:00N 49°26' E 000°14'0 0.0
2018-Dec-12 08:30N 49°26' E 000°14'0 0.0
2018-Dec-12 07:57N 49°26' E 000°14'0 0.0
2018-Dec-12 07:30N 49°26' E 000°14'0 0.0
2018-Dec-12 07:00N 49°26' E 000°14'0 0.0
2018-Dec-12 06:30N 49°26' E 000°14'0 0.0
2018-Dec-12 06:00N 49°26' E 000°14'0 0.0
2018-Dec-12 05:30N 49°26' E 000°14'0 0.0
2018-Dec-12 05:00N 49°26' E 000°14'0 0.0
2018-Dec-12 04:30N 49°26' E 000°14'0 0.0
2018-Dec-12 04:00N 49°26' E 000°14'0 0.0
2018-Dec-12 03:30N 49°26' E 000°14'0 0.0
2018-Dec-12 03:00N 49°26' E 000°14'0 0.3
2018-Dec-12 02:31N 49°26' E 000°14'4 7.8
2018-Dec-12 02:00N 49°26' E 000°20'612.2
2018-Dec-12 01:30N 49°29' E 000°29'4 7.3
2018-Dec-12 01:00N 49°27' E 000°34'4 8.3
2018-Dec-12 00:30N 49°28' E 000°40'4 8.4
2018-Dec-12 00:00N 49°31' E 000°43'3 7.0
2018-Dec-11 23:30N 49°29' E 000°47'3 6.4
2018-Dec-11 23:00N 49°26' E 000°48'3 5.4
2018-Dec-11 22:30N 49°25' E 000°52'4 8.9
2018-Dec-11 22:00N 49°29' E 000°55'510.7
2018-Dec-11 21:30N 49°24' E 000°55'3 6.8
2018-Dec-11 21:00N 49°22' E 000°59'4 7.8
2018-Dec-11 20:30N 49°25' E 001°01'2 3.2
2018-Dec-11 19:59N 49°27' E 001°03'0 0.0
2018-Dec-11 19:29N 49°27' E 001°03'0 0.0
2018-Dec-11 18:56N 49°27' E 001°03'0 0.0
2018-Dec-11 18:29N 49°27' E 001°03'0 0.0
2018-Dec-11 17:59N 49°27' E 001°03'0 0.0
2018-Dec-11 17:29N 49°27' E 001°03'0 0.0
2018-Dec-11 16:59N 49°27' E 001°03'0 0.0
2018-Dec-11 16:29N 49°27' E 001°03'0 0.0
2018-Dec-11 15:59N 49°27' E 001°03'0 0.0
2018-Dec-11 15:29N 49°27' E 001°03'0 0.0
2018-Dec-11 15:00N 49°27' E 001°03'1 2.4
2018-Dec-11 14:30N 49°26' E 001°02'3 6.9
2018-Dec-11 14:00N 49°23' E 001°00'3 6.8
2018-Dec-11 13:30N 49°22' E 000°55'611.5
2018-Dec-11 13:00N 49°27' E 000°56'3 6.1
2018-Dec-11 12:30N 49°27' E 000°51'3 6.0
2018-Dec-11 12:00N 49°25' E 000°49'5 9.5
2018-Dec-11 11:30N 49°29' E 000°47'4 8.3
2018-Dec-11 11:00N 49°31' E 000°41'612.0
2018-Dec-11 10:31N 49°26' E 000°36'611.5
2018-Dec-11 10:00N 49°29' E 000°29'713.4
2018-Dec-11 09:30N 49°26' E 000°19'713.9
2018-Dec-11 09:00N 49°26' E 000°08'714.1
2018-Dec-11 08:30N 49°28' W 000°02'510.4
2018-Dec-11 08:00N 49°31' W 000°09'713.3
2018-Dec-11 07:30N 49°37' W 000°11'714.1
2018-Dec-11 07:00N 49°44' W 000°11'815.6
2018-Dec-11 06:30N 49°52' W 000°10'816.9
2018-Dec-11 06:00N 50°00' W 000°11'1017.0
2018-Dec-11 05:24N 50°11' W 000°12'917.0
2018-Dec-11 04:53N 50°19' W 000°10'2316.4
2018-Dec-11 03:29N 50°32' E 000°20'817.4
2018-Dec-11 03:00N 50°34' E 000°33'816.7
2018-Dec-11 02:30N 50°39' E 000°44'816.3
2018-Dec-11 02:00N 50°44' E 000°54'915.6
2018-Dec-11 01:25N 50°48' E 001°07'615.2
2018-Dec-11 01:00N 50°52' E 001°15'815.1
2018-Dec-11 00:31N 50°58' E 001°22'816.6
2018-Dec-11 00:01N 51°04' E 001°31'917.2
2018-Dec-10 23:30N 51°10' E 001°41'918.2
2018-Dec-10 23:00N 51°17' E 001°50'918.6
2018-Dec-10 22:31N 51°25' E 001°57'918.3
2018-Dec-10 22:00N 51°32' E 002°07'918.1
2018-Dec-10 21:30N 51°39' E 002°17'5115.8
2018-Dec-10 18:17N 52°04' E 003°29'415.4
2018-Dec-10 18:00N 52°04' E 003°36'714.7
2018-Dec-10 17:30N 52°06' E 003°47'3 6.9
2018-Dec-10 17:01N 52°04' E 003°52'5 9.1
2018-Dec-10 16:30N 52°01' E 003°58'4 8.9
2018-Dec-10 16:00N 51°59' E 004°04'4 8.2
2018-Dec-10 15:30N 51°57' E 004°10'4 7.0
2018-Dec-10 15:00N 51°55' E 004°15'4 8.2
2018-Dec-10 14:30N 51°54' E 004°21'5 9.0
2018-Dec-10 14:00N 51°54' E 004°28'1 1.0
2018-Dec-10 13:29N 51°54' E 004°29'0 0.0
2018-Dec-10 12:59N 51°54' E 004°29'0 0.0
2018-Dec-10 12:29N 51°54' E 004°29'0 0.0
2018-Dec-10 11:59N 51°54' E 004°29'0 0.0
2018-Dec-10 11:29N 51°54' E 004°29'0 0.0
2018-Dec-10 10:59N 51°54' E 004°29'0 0.0
2018-Dec-10 10:29N 51°54' E 004°29'0 0.0
2018-Dec-10 10:00N 51°54' E 004°29'0 0.0
2018-Dec-10 09:30N 51°54' E 004°29'0 0.0
2018-Dec-10 09:00N 51°54' E 004°29'0 0.0
2018-Dec-10 08:30N 51°54' E 004°29'0 0.0
2018-Dec-10 08:00N 51°54' E 004°29'0 0.0
2018-Dec-10 07:30N 51°54' E 004°29'0 0.0
2018-Dec-10 07:00N 51°54' E 004°29'0 0.0
2018-Dec-10 06:30N 51°54' E 004°29'0 0.0
2018-Dec-10 06:00N 51°54' E 004°29'0 0.0
2018-Dec-10 05:30N 51°54' E 004°29'1 2.5
2018-Dec-10 05:00N 51°54' E 004°27'4 8.8
2018-Dec-10 04:30N 51°54' E 004°20'510.0
2018-Dec-10 04:00N 51°56' E 004°13'612.2
2018-Dec-10 03:30N 51°59' E 004°05'1313.2
2018-Dec-10 02:30N 51°58' E 003°43'4 7.7
2018-Dec-10 01:59N 51°57' E 003°37'611.3
2018-Dec-10 01:29N 51°56' E 003°28'712.5
2018-Dec-10 00:54N 51°54' E 003°16'2711.2
2018-Dec-09 22:28N 51°52' E 002°33'611.3
2018-Dec-09 21:57N 51°53' E 002°23'511.1
2018-Dec-09 21:30N 51°53' E 002°15'510.5
2018-Dec-09 21:00N 51°52' E 002°07'510.1
2018-Dec-09 20:30N 51°50' E 001°59'510.4
2018-Dec-09 20:00N 51°48' E 001°52'612.1
2018-Dec-09 19:30N 51°50' E 001°42'5 9.9
2018-Dec-09 19:00N 51°50' E 001°34'713.8
2018-Dec-09 18:31N 51°44' E 001°30'714.5
2018-Dec-09 18:01N 51°38' E 001°23'714.9
2018-Dec-09 17:31N 51°34' E 001°13'815.4
2018-Dec-09 17:01N 51°30' E 001°02'714.7
2018-Dec-09 16:31N 51°29' E 000°50'816.2
2018-Dec-09 16:01N 51°30' E 000°37'713.3
2018-Dec-09 15:30N 51°28' E 000°27'3 6.5
2018-Dec-09 14:59N 51°27' E 000°22'0 0.0
2018-Dec-09 14:29N 51°27' E 000°22'0 0.0
2018-Dec-09 13:59N 51°27' E 000°22'0 0.0
2018-Dec-09 13:29N 51°27' E 000°22'0 0.0
2018-Dec-09 12:59N 51°27' E 000°22'0 0.0
2018-Dec-09 12:29N 51°27' E 000°22'0 0.0
2018-Dec-09 11:59N 51°27' E 000°22'0 0.0
2018-Dec-09 11:29N 51°27' E 000°22'0 0.0
2018-Dec-09 10:59N 51°27' E 000°22'0 0.0
2018-Dec-09 10:29N 51°27' E 000°22'0 0.0
2018-Dec-09 09:59N 51°27' E 000°22'0 0.0
2018-Dec-09 09:29N 51°27' E 000°22'0 0.0
2018-Dec-09 08:56N 51°27' E 000°22'0 0.0
2018-Dec-09 08:29N 51°27' E 000°22'0 0.0
2018-Dec-09 07:59N 51°27' E 000°22'0 0.0
2018-Dec-09 07:29N 51°27' E 000°22'0 0.0
2018-Dec-09 06:59N 51°27' E 000°22'0 0.0
2018-Dec-09 06:29N 51°27' E 000°22'0 0.0
2018-Dec-09 05:59N 51°27' E 000°22'0 0.0
2018-Dec-09 05:29N 51°27' E 000°22'0 0.0
2018-Dec-09 04:58N 51°27' E 000°22'0 0.0
2018-Dec-09 04:28N 51°27' E 000°22'0 0.0
2018-Dec-09 03:58N 51°27' E 000°22'0 0.0
2018-Dec-09 03:28N 51°27' E 000°22'0 0.0
2018-Dec-09 02:58N 51°27' E 000°22'0 0.0
2018-Dec-09 02:28N 51°27' E 000°22'0 0.0
2018-Dec-09 01:58N 51°27' E 000°22'0 0.0
2018-Dec-09 01:28N 51°27' E 000°22'0 0.0
2018-Dec-09 00:58N 51°27' E 000°22'0 0.0
2018-Dec-09 00:28N 51°27' E 000°22'0 0.0
2018-Dec-08 23:58N 51°27' E 000°22'0 0.0
2018-Dec-08 23:28N 51°27' E 000°22'0 0.0
2018-Dec-08 22:58N 51°27' E 000°22'0 0.0
2018-Dec-08 22:28N 51°27' E 000°22'0 0.0
2018-Dec-08 21:58N 51°27' E 000°22'0 0.0
2018-Dec-08 21:28N 51°27' E 000°22'0 0.0
2018-Dec-08 20:58N 51°27' E 000°22'0 0.0
2018-Dec-08 20:28N 51°27' E 000°22'0 0.0
2018-Dec-08 19:58N 51°27' E 000°22'0 0.0
2018-Dec-08 19:28N 51°27' E 000°22'0 0.0
2018-Dec-08 18:58N 51°27' E 000°22'0 0.0
2018-Dec-08 18:28N 51°27' E 000°22'0 0.0
2018-Dec-08 17:58N 51°27' E 000°22'0 0.0
2018-Dec-08 17:28N 51°27' E 000°22'0 0.0
2018-Dec-08 16:58N 51°27' E 000°22'0 0.0
2018-Dec-08 16:28N 51°27' E 000°22'0 0.0
2018-Dec-08 15:58N 51°27' E 000°22'0 0.0
2018-Dec-08 15:28N 51°27' E 000°22'0 0.0
2018-Dec-08 14:58N 51°27' E 000°22'0 0.0
2018-Dec-08 14:28N 51°27' E 000°22'0 0.0
2018-Dec-08 13:58N 51°27' E 000°22'0 0.0
2018-Dec-08 13:28N 51°27' E 000°22'0 0.0
2018-Dec-08 12:58N 51°27' E 000°22'0 0.0
2018-Dec-08 12:28N 51°27' E 000°22'0 0.0
2018-Dec-08 11:58N 51°27' E 000°22'0 0.0
2018-Dec-08 11:28N 51°27' E 000°22'0 0.0
2018-Dec-08 10:58N 51°27' E 000°22'0 0.0
2018-Dec-08 10:28N 51°27' E 000°22'0 0.0
2018-Dec-08 09:58N 51°27' E 000°22'0 0.0
2018-Dec-08 09:28N 51°27' E 000°22'0 0.0
2018-Dec-08 08:58N 51°27' E 000°22'0 0.0
2018-Dec-08 08:28N 51°27' E 000°22'0 0.0
2018-Dec-08 07:58N 51°27' E 000°22'0 0.0
2018-Dec-08 07:29N 51°27' E 000°22'1 1.5
2018-Dec-08 07:00N 51°27' E 000°23'3 6.9
2018-Dec-08 06:31N 51°29' E 000°28'510.0
2018-Dec-08 06:01N 51°30' E 000°35'713.0
2018-Dec-08 05:30N 51°29' E 000°46'612.4
2018-Dec-08 05:01N 51°29' E 000°56'612.1
2018-Dec-08 04:30N 51°30' E 001°05'611.7
2018-Dec-08 04:00N 51°29' E 001°15'612.6
2018-Dec-08 03:30N 51°28' E 001°25'611.4
2018-Dec-08 03:00N 51°25' E 001°32'510.2
2018-Dec-08 02:30N 51°20' E 001°36'3 6.0
2018-Dec-08 02:01N 51°17' E 001°37'3 5.4
2018-Dec-08 01:30N 51°16' E 001°41'4 7.7
2018-Dec-08 01:00N 51°19' E 001°39'611.6
2018-Dec-08 00:30N 51°14' E 001°39'510.5
2018-Dec-08 00:00N 51°09' E 001°43'714.0
2018-Dec-07 23:30N 51°03' E 001°37'713.9
2018-Dec-07 23:00N 50°58' E 001°29'612.1
2018-Dec-07 22:30N 50°53' E 001°25'1111.3
2018-Dec-07 21:30N 50°42' E 001°19'611.1
2018-Dec-07 20:58N 50°38' E 001°12'3510.5
2018-Dec-07 17:37N 50°23' E 000°22'2410.2
2018-Dec-07 15:13N 50°17' W 000°15'10 9.3
2018-Dec-07 14:09N 50°15' W 000°31'5 9.1
2018-Dec-07 13:36N 50°14' W 000°38'1 9.1
2018-Dec-07 13:30N 50°13' W 000°39'12 9.2
2018-Dec-07 12:13N 50°10' W 000°57'510.7
2018-Dec-07 11:45N 50°09' W 001°05'311.6
2018-Dec-07 11:30N 50°08' W 001°09'612.2
2018-Dec-07 11:00N 50°06' W 001°18'713.1
2018-Dec-07 10:30N 50°04' W 001°28'713.8
2018-Dec-07 10:01N 50°02' W 001°38'714.2
2018-Dec-07 09:30N 50°01' W 001°49'715.0
2018-Dec-07 09:01N 49°59' W 002°00'815.9
2018-Dec-07 08:30N 49°57' W 002°12'2515.1
2018-Dec-07 06:51N 49°50' W 002°49'3214.5
2018-Dec-07 04:39N 49°32' W 003°31'7613.7
2018-Dec-06 23:07N 48°55' W 005°12'212.4
2018-Dec-06 22:59N 48°54' W 005°14'612.2
2018-Dec-06 22:30N 48°51' W 005°22'612.1
2018-Dec-06 22:00N 48°48' W 005°29'1711.4
2018-Dec-06 20:33N 48°34' W 005°44'1411.7
2018-Dec-06 19:19N 48°22' W 005°55'56113.1
2018-Dec-05 00:30N 39°27' W 009°50'814.2
2018-Dec-04 23:56N 39°19' W 009°50'614.5
2018-Dec-04 23:30N 39°13' W 009°50'714.6
2018-Dec-04 23:00N 39°05' W 009°50'714.4
2018-Dec-04 22:30N 38°58' W 009°50'714.6
2018-Dec-04 22:01N 38°51' W 009°51'714.7
2018-Dec-04 21:30N 38°43' W 009°51'612.7
2018-Dec-04 21:00N 38°38' W 009°47'713.6
2018-Dec-04 20:30N 38°37' W 009°38'713.9
2018-Dec-04 20:01N 38°37' W 009°29'713.3
2018-Dec-04 19:31N 38°39' W 009°21'713.2
2018-Dec-04 19:00N 38°41' W 009°13'5 9.6
2018-Dec-04 18:30N 38°43' W 009°07'0 0.2
2018-Dec-04 17:58N 38°43' W 009°07'0 0.0
2018-Dec-04 17:28N 38°43' W 009°07'0 0.0
2018-Dec-04 16:58N 38°43' W 009°07'0 0.0
2018-Dec-04 16:19N 38°43' W 009°07'0 0.0
2018-Dec-04 15:58N 38°43' W 009°07'0 0.0
2018-Dec-04 15:28N 38°43' W 009°07'0 0.0
2018-Dec-04 14:58N 38°43' W 009°07'0 0.0
2018-Dec-04 14:28N 38°43' W 009°07'0 0.0
2018-Dec-04 13:58N 38°43' W 009°07'0 0.0
2018-Dec-04 13:28N 38°43' W 009°07'0 0.0
2018-Dec-04 12:58N 38°43' W 009°07'0 0.0
2018-Dec-04 12:28N 38°43' W 009°07'0 0.0
2018-Dec-04 11:58N 38°43' W 009°07'0 0.0
2018-Dec-04 11:28N 38°43' W 009°07'0 0.0
2018-Dec-04 10:58N 38°43' W 009°07'0 0.0
2018-Dec-04 10:28N 38°43' W 009°07'0 0.0
2018-Dec-04 09:55N 38°43' W 009°07'0 0.0
2018-Dec-04 09:28N 38°43' W 009°07'0 0.0
2018-Dec-04 08:58N 38°43' W 009°07'0 0.0
2018-Dec-04 08:28N 38°43' W 009°07'0 0.0
2018-Dec-04 07:58N 38°43' W 009°07'0 0.0
2018-Dec-04 07:28N 38°43' W 009°07'0 0.0
2018-Dec-04 06:52N 38°43' W 009°07'0 0.0
2018-Dec-04 06:25N 38°43' W 009°07'0 0.0
2018-Dec-04 06:01N 38°43' W 009°07'0 0.0
2018-Dec-04 05:30N 38°43' W 009°07'0 0.0
2018-Dec-04 05:00N 38°43' W 009°07'0 0.0
2018-Dec-04 04:31N 38°43' W 009°07'0 0.0
2018-Dec-04 04:00N 38°43' W 009°07'1 2.8
2018-Dec-04 03:30N 38°42' W 009°09'510.3
2018-Dec-04 03:01N 38°41' W 009°15'510.2
2018-Dec-04 02:30N 38°38' W 009°21'713.2
2018-Dec-04 02:00N 38°35' W 009°28'714.3
2018-Dec-04 01:30N 38°31' W 009°36'714.5
2018-Dec-04 01:00N 38°27' W 009°44'714.6
2018-Dec-04 00:30N 38°23' W 009°51'715.0
2018-Dec-04 00:00N 38°19' W 009°59'715.0
2018-Dec-03 23:30N 38°15' W 010°07'714.7
2018-Dec-03 23:00N 38°11' W 010°15'814.7
2018-Dec-03 22:29N 38°07' W 010°23'714.7
2018-Dec-03 22:00N 38°03' W 010°31'714.5
2018-Dec-03 21:30N 37°59' W 010°39'814.9
2018-Dec-03 20:58N 37°55' W 010°47'716.0
2018-Dec-03 20:30N 37°51' W 010°55'1616.4
2018-Dec-03 19:31N 37°42' W 011°12'016.5
2018-Dec-03 19:30N 37°42' W 011°13'  
Track history (hours):
 
Tides and Currents Weather Stations Pressure Air Temp Water Temp Dewpoint Dewpoint Depression Visibility Wind Speed Wind Dir Waves Ship Positions

Marco Polo

Operator: Orient Lines

Last reported at 2018-Dec-13 12:30 UTC. Time now 2018-Dec-13 12:58 UTC.
Position N 49°58' W 003°19'.

Type: Ship. MMSI: 308691456.

Date/timePositionNaut miles runAvg speedWind from/ knotsBaromVisibWave heightAir tempDewpointWater temp
2018-Dec-13 12:30N 49°58' W 003°19'713.2
2018-Dec-13 12:00N 49°59' W 003°09'713.2
2018-Dec-13 11:30N 49°59' W 002°58'612.7
2018-Dec-13 11:00N 49°59' W 002°49'612.2
2018-Dec-13 10:30N 50°01' W 002°39'1711.2
2018-Dec-13 09:00N 50°02' W 002°13'712.5
2018-Dec-13 08:24N 49°59' W 002°03'512.8
2018-Dec-13 08:00N 49°58' W 001°55'713.3
2018-Dec-13 07:30N 49°56' W 001°45'713.7
2018-Dec-13 07:00N 49°54' W 001°35'714.8
2018-Dec-13 06:30N 49°51' W 001°24'815.6
2018-Dec-13 06:00N 49°48' W 001°13'815.3
2018-Dec-13 05:31N 49°45' W 001°02'815.0
2018-Dec-13 04:59N 49°42' W 000°51'1014.9
2018-Dec-13 04:20N 49°38' W 000°37'514.6
2018-Dec-13 04:00N 49°36' W 000°31'714.3
2018-Dec-13 03:30N 49°33' W 000°21'714.0
2018-Dec-13 03:00N 49°30' W 000°11'713.6
2018-Dec-13 02:31N 49°28' W 000°01'612.6
2018-Dec-13 02:00N 49°26' E 000°08'4 7.7
2018-Dec-13 01:30N 49°26' E 000°14'0 0.0
2018-Dec-13 01:00N 49°26' E 000°14'0 0.0
2018-Dec-13 00:30N 49°26' E 000°14'0 0.0
2018-Dec-13 00:00N 49°26' E 000°14'0 0.0
2018-Dec-12 23:30N 49°26' E 000°14'0 0.0
2018-Dec-12 23:00N 49°26' E 000°14'0 0.0
2018-Dec-12 22:30N 49°26' E 000°14'0 0.0
2018-Dec-12 22:00N 49°26' E 000°14'0 0.0
2018-Dec-12 21:27N 49°26' E 000°14'0 0.0
2018-Dec-12 21:00N 49°26' E 000°14'0 0.0
2018-Dec-12 20:30N 49°26' E 000°14'0 0.0
2018-Dec-12 20:00N 49°26' E 000°14'0 0.0
2018-Dec-12 19:30N 49°26' E 000°14'0 0.0
2018-Dec-12 19:00N 49°26' E 000°14'0 0.0
2018-Dec-12 18:30N 49°26' E 000°14'0 0.0
2018-Dec-12 18:00N 49°26' E 000°14'0 0.0
2018-Dec-12 17:30N 49°26' E 000°14'0 0.0
2018-Dec-12 17:00N 49°26' E 000°14'0 0.0
2018-Dec-12 16:30N 49°26' E 000°14'0 0.0
2018-Dec-12 16:00N 49°26' E 000°14'0 0.0
2018-Dec-12 15:30N 49°26' E 000°14'0 0.0
2018-Dec-12 15:00N 49°26' E 000°14'0 0.0
2018-Dec-12 14:30N 49°26' E 000°14'0 0.0
2018-Dec-12 14:00N 49°26' E 000°14'0 0.0
2018-Dec-12 13:30N 49°26' E 000°14'0 0.0
2018-Dec-12 13:00N 49°26' E 000°14'0 0.0
2018-Dec-12 12:27N 49°26' E 000°14'0 0.0
2018-Dec-12 11:57N 49°26' E 000°14'0 0.0
2018-Dec-12 11:30N 49°26' E 000°14'0 0.0
2018-Dec-12 10:57N 49°26' E 000°14'0 0.0
2018-Dec-12 10:30N 49°26' E 000°14'0 0.0
2018-Dec-12 10:00N 49°26' E 000°14'0 0.0
2018-Dec-12 09:30N 49°26' E 000°14'0 0.0
2018-Dec-12 09:00N 49°26' E 000°14'0 0.0
2018-Dec-12 08:30N 49°26' E 000°14'0 0.0
2018-Dec-12 07:57N 49°26' E 000°14'0 0.0
2018-Dec-12 07:30N 49°26' E 000°14'0 0.0
2018-Dec-12 07:00N 49°26' E 000°14'0 0.0
2018-Dec-12 06:30N 49°26' E 000°14'0 0.0
2018-Dec-12 06:00N 49°26' E 000°14'0 0.0
2018-Dec-12 05:30N 49°26' E 000°14'0 0.0
2018-Dec-12 05:00N 49°26' E 000°14'0 0.0
2018-Dec-12 04:30N 49°26' E 000°14'0 0.0
2018-Dec-12 04:00N 49°26' E 000°14'0 0.0
2018-Dec-12 03:30N 49°26' E 000°14'0 0.0
2018-Dec-12 03:00N 49°26' E 000°14'0 0.3
2018-Dec-12 02:31N 49°26' E 000°14'4 7.8
2018-Dec-12 02:00N 49°26' E 000°20'612.2
2018-Dec-12 01:30N 49°29' E 000°29'4 7.3
2018-Dec-12 01:00N 49°27' E 000°34'4 8.3
2018-Dec-12 00:30N 49°28' E 000°40'4 8.4
2018-Dec-12 00:00N 49°31' E 000°43'3 7.0
2018-Dec-11 23:30N 49°29' E 000°47'3 6.4
2018-Dec-11 23:00N 49°26' E 000°48'3 5.4
2018-Dec-11 22:30N 49°25' E 000°52'4 8.9
2018-Dec-11 22:00N 49°29' E 000°55'510.7
2018-Dec-11 21:30N 49°24' E 000°55'3 6.8
2018-Dec-11 21:00N 49°22' E 000°59'4 7.8
2018-Dec-11 20:30N 49°25' E 001°01'2 3.2
2018-Dec-11 19:59N 49°27' E 001°03'0 0.0
2018-Dec-11 19:29N 49°27' E 001°03'0 0.0
2018-Dec-11 18:56N 49°27' E 001°03'0 0.0
2018-Dec-11 18:29N 49°27' E 001°03'0 0.0
2018-Dec-11 17:59N 49°27' E 001°03'0 0.0
2018-Dec-11 17:29N 49°27' E 001°03'0 0.0
2018-Dec-11 16:59N 49°27' E 001°03'0 0.0
2018-Dec-11 16:29N 49°27' E 001°03'0 0.0
2018-Dec-11 15:59N 49°27' E 001°03'0 0.0
2018-Dec-11 15:29N 49°27' E 001°03'0 0.0
2018-Dec-11 15:00N 49°27' E 001°03'1 2.4
2018-Dec-11 14:30N 49°26' E 001°02'3 6.9
2018-Dec-11 14:00N 49°23' E 001°00'3 6.8
2018-Dec-11 13:30N 49°22' E 000°55'611.5
2018-Dec-11 13:00N 49°27' E 000°56'3 6.1
2018-Dec-11 12:30N 49°27' E 000°51'3 6.0
2018-Dec-11 12:00N 49°25' E 000°49'5 9.5
2018-Dec-11 11:30N 49°29' E 000°47'4 8.3
2018-Dec-11 11:00N 49°31' E 000°41'612.0
2018-Dec-11 10:31N 49°26' E 000°36'611.5
2018-Dec-11 10:00N 49°29' E 000°29'713.4
2018-Dec-11 09:30N 49°26' E 000°19'713.9
2018-Dec-11 09:00N 49°26' E 000°08'714.1
2018-Dec-11 08:30N 49°28' W 000°02'510.4
2018-Dec-11 08:00N 49°31' W 000°09'713.3
2018-Dec-11 07:30N 49°37' W 000°11'714.1
2018-Dec-11 07:00N 49°44' W 000°11'815.6
2018-Dec-11 06:30N 49°52' W 000°10'816.9
2018-Dec-11 06:00N 50°00' W 000°11'1017.0
2018-Dec-11 05:24N 50°11' W 000°12'917.0
2018-Dec-11 04:53N 50°19' W 000°10'2316.4
2018-Dec-11 03:29N 50°32' E 000°20'817.4
2018-Dec-11 03:00N 50°34' E 000°33'816.7
2018-Dec-11 02:30N 50°39' E 000°44'816.3
2018-Dec-11 02:00N 50°44' E 000°54'915.6
2018-Dec-11 01:25N 50°48' E 001°07'615.2
2018-Dec-11 01:00N 50°52' E 001°15'815.1
2018-Dec-11 00:31N 50°58' E 001°22'816.6
2018-Dec-11 00:01N 51°04' E 001°31'917.2
2018-Dec-10 23:30N 51°10' E 001°41'918.2
2018-Dec-10 23:00N 51°17' E 001°50'918.6
2018-Dec-10 22:31N 51°25' E 001°57'918.3
2018-Dec-10 22:00N 51°32' E 002°07'918.1
2018-Dec-10 21:30N 51°39' E 002°17'5115.8
2018-Dec-10 18:17N 52°04' E 003°29'415.4
2018-Dec-10 18:00N 52°04' E 003°36'714.7
2018-Dec-10 17:30N 52°06' E 003°47'3 6.9
2018-Dec-10 17:01N 52°04' E 003°52'5 9.1
2018-Dec-10 16:30N 52°01' E 003°58'4 8.9
2018-Dec-10 16:00N 51°59' E 004°04'4 8.2
2018-Dec-10 15:30N 51°57' E 004°10'4 7.0
2018-Dec-10 15:00N 51°55' E 004°15'4 8.2
2018-Dec-10 14:30N 51°54' E 004°21'5 9.0
2018-Dec-10 14:00N 51°54' E 004°28'1 1.0
2018-Dec-10 13:29N 51°54' E 004°29'0 0.0
2018-Dec-10 12:59N 51°54' E 004°29'0 0.0
2018-Dec-10 12:29N 51°54' E 004°29'0 0.0
2018-Dec-10 11:59N 51°54' E 004°29'0 0.0
2018-Dec-10 11:29N 51°54' E 004°29'0 0.0
2018-Dec-10 10:59N 51°54' E 004°29'0 0.0
2018-Dec-10 10:29N 51°54' E 004°29'0 0.0
2018-Dec-10 10:00N 51°54' E 004°29'0 0.0
2018-Dec-10 09:30N 51°54' E 004°29'0 0.0
2018-Dec-10 09:00N 51°54' E 004°29'0 0.0
2018-Dec-10 08:30N 51°54' E 004°29'0 0.0
2018-Dec-10 08:00N 51°54' E 004°29'0 0.0
2018-Dec-10 07:30N 51°54' E 004°29'0 0.0
2018-Dec-10 07:00N 51°54' E 004°29'0 0.0
2018-Dec-10 06:30N 51°54' E 004°29'0 0.0
2018-Dec-10 06:00N 51°54' E 004°29'0 0.0
2018-Dec-10 05:30N 51°54' E 004°29'1 2.5
2018-Dec-10 05:00N 51°54' E 004°27'4 8.8
2018-Dec-10 04:30N 51°54' E 004°20'510.0
2018-Dec-10 04:00N 51°56' E 004°13'612.2
2018-Dec-10 03:30N 51°59' E 004°05'1313.2
2018-Dec-10 02:30N 51°58' E 003°43'4 7.7
2018-Dec-10 01:59N 51°57' E 003°37'611.3
2018-Dec-10 01:29N 51°56' E 003°28'712.5
2018-Dec-10 00:54N 51°54' E 003°16'2711.2
2018-Dec-09 22:28N 51°52' E 002°33'611.3
2018-Dec-09 21:57N 51°53' E 002°23'511.1
2018-Dec-09 21:30N 51°53' E 002°15'510.5
2018-Dec-09 21:00N 51°52' E 002°07'510.1
2018-Dec-09 20:30N 51°50' E 001°59'510.4
2018-Dec-09 20:00N 51°48' E 001°52'612.1
2018-Dec-09 19:30N 51°50' E 001°42'5 9.9
2018-Dec-09 19:00N 51°50' E 001°34'713.8
2018-Dec-09 18:31N 51°44' E 001°30'714.5
2018-Dec-09 18:01N 51°38' E 001°23'714.9
2018-Dec-09 17:31N 51°34' E 001°13'815.4
2018-Dec-09 17:01N 51°30' E 001°02'714.7
2018-Dec-09 16:31N 51°29' E 000°50'816.2
2018-Dec-09 16:01N 51°30' E 000°37'713.3
2018-Dec-09 15:30N 51°28' E 000°27'3 6.5
2018-Dec-09 14:59N 51°27' E 000°22'0 0.0
2018-Dec-09 14:29N 51°27' E 000°22'0 0.0
2018-Dec-09 13:59N 51°27' E 000°22'0 0.0
2018-Dec-09 13:29N 51°27' E 000°22'0 0.0
2018-Dec-09 12:59N 51°27' E 000°22'0 0.0
2018-Dec-09 12:29N 51°27' E 000°22'0 0.0
2018-Dec-09 11:59N 51°27' E 000°22'0 0.0
2018-Dec-09 11:29N 51°27' E 000°22'0 0.0
2018-Dec-09 10:59N 51°27' E 000°22'0 0.0
2018-Dec-09 10:29N 51°27' E 000°22'0 0.0
2018-Dec-09 09:59N 51°27' E 000°22'0 0.0
2018-Dec-09 09:29N 51°27' E 000°22'0 0.0
2018-Dec-09 08:56N 51°27' E 000°22'0 0.0
2018-Dec-09 08:29N 51°27' E 000°22'0 0.0
2018-Dec-09 07:59N 51°27' E 000°22'0 0.0
2018-Dec-09 07:29N 51°27' E 000°22'0 0.0
2018-Dec-09 06:59N 51°27' E 000°22'0 0.0
2018-Dec-09 06:29N 51°27' E 000°22'0 0.0
2018-Dec-09 05:59N 51°27' E 000°22'0 0.0
2018-Dec-09 05:29N 51°27' E 000°22'0 0.0
2018-Dec-09 04:58N 51°27' E 000°22'0 0.0
2018-Dec-09 04:28N 51°27' E 000°22'0 0.0
2018-Dec-09 03:58N 51°27' E 000°22'0 0.0
2018-Dec-09 03:28N 51°27' E 000°22'0 0.0
2018-Dec-09 02:58N 51°27' E 000°22'0 0.0
2018-Dec-09 02:28N 51°27' E 000°22'0 0.0
2018-Dec-09 01:58N 51°27' E 000°22'0 0.0
2018-Dec-09 01:28N 51°27' E 000°22'0 0.0
2018-Dec-09 00:58N 51°27' E 000°22'0 0.0
2018-Dec-09 00:28N 51°27' E 000°22'0 0.0
2018-Dec-08 23:58N 51°27' E 000°22'0 0.0
2018-Dec-08 23:28N 51°27' E 000°22'0 0.0
2018-Dec-08 22:58N 51°27' E 000°22'0 0.0
2018-Dec-08 22:28N 51°27' E 000°22'0 0.0
2018-Dec-08 21:58N 51°27' E 000°22'0 0.0
2018-Dec-08 21:28N 51°27' E 000°22'0 0.0
2018-Dec-08 20:58N 51°27' E 000°22'0 0.0
2018-Dec-08 20:28N 51°27' E 000°22'0 0.0
2018-Dec-08 19:58N 51°27' E 000°22'0 0.0
2018-Dec-08 19:28N 51°27' E 000°22'0 0.0
2018-Dec-08 18:58N 51°27' E 000°22'0 0.0
2018-Dec-08 18:28N 51°27' E 000°22'0 0.0
2018-Dec-08 17:58N 51°27' E 000°22'0 0.0
2018-Dec-08 17:28N 51°27' E 000°22'0 0.0
2018-Dec-08 16:58N 51°27' E 000°22'0 0.0
2018-Dec-08 16:28N 51°27' E 000°22'0 0.0
2018-Dec-08 15:58N 51°27' E 000°22'0 0.0
2018-Dec-08 15:28N 51°27' E 000°22'0 0.0
2018-Dec-08 14:58N 51°27' E 000°22'0 0.0
2018-Dec-08 14:28N 51°27' E 000°22'0 0.0
2018-Dec-08 13:58N 51°27' E 000°22'0 0.0
2018-Dec-08 13:28N 51°27' E 000°22'0 0.0
2018-Dec-08 12:58N 51°27' E 000°22'0 0.0
2018-Dec-08 12:28N 51°27' E 000°22'0 0.0
2018-Dec-08 11:58N 51°27' E 000°22'0 0.0
2018-Dec-08 11:28N 51°27' E 000°22'0 0.0
2018-Dec-08 10:58N 51°27' E 000°22'0 0.0
2018-Dec-08 10:28N 51°27' E 000°22'0 0.0
2018-Dec-08 09:58N 51°27' E 000°22'0 0.0
2018-Dec-08 09:28N 51°27' E 000°22'0 0.0
2018-Dec-08 08:58N 51°27' E 000°22'0 0.0
2018-Dec-08 08:28N 51°27' E 000°22'0 0.0
2018-Dec-08 07:58N 51°27' E 000°22'0 0.0
2018-Dec-08 07:29N 51°27' E 000°22'1 1.5
2018-Dec-08 07:00N 51°27' E 000°23'3 6.9
2018-Dec-08 06:31N 51°29' E 000°28'510.0
2018-Dec-08 06:01N 51°30' E 000°35'713.0
2018-Dec-08 05:30N 51°29' E 000°46'612.4
2018-Dec-08 05:01N 51°29' E 000°56'612.1
2018-Dec-08 04:30N 51°30' E 001°05'611.7
2018-Dec-08 04:00N 51°29' E 001°15'612.6
2018-Dec-08 03:30N 51°28' E 001°25'611.4
2018-Dec-08 03:00N 51°25' E 001°32'510.2
2018-Dec-08 02:30N 51°20' E 001°36'3 6.0
2018-Dec-08 02:01N 51°17' E 001°37'3 5.4
2018-Dec-08 01:30N 51°16' E 001°41'4 7.7
2018-Dec-08 01:00N 51°19' E 001°39'611.6
2018-Dec-08 00:30N 51°14' E 001°39'510.5
2018-Dec-08 00:00N 51°09' E 001°43'714.0
2018-Dec-07 23:30N 51°03' E 001°37'713.9
2018-Dec-07 23:00N 50°58' E 001°29'612.1
2018-Dec-07 22:30N 50°53' E 001°25'1111.3
2018-Dec-07 21:30N 50°42' E 001°19'611.1
2018-Dec-07 20:58N 50°38' E 001°12'3510.5
2018-Dec-07 17:37N 50°23' E 000°22'2410.2
2018-Dec-07 15:13N 50°17' W 000°15'10 9.3
2018-Dec-07 14:09N 50°15' W 000°31'5 9.1
2018-Dec-07 13:36N 50°14' W 000°38'1 9.1
2018-Dec-07 13:30N 50°13' W 000°39'12 9.2
2018-Dec-07 12:13N 50°10' W 000°57'510.7
2018-Dec-07 11:45N 50°09' W 001°05'311.6
2018-Dec-07 11:30N 50°08' W 001°09'612.2
2018-Dec-07 11:00N 50°06' W 001°18'713.1
2018-Dec-07 10:30N 50°04' W 001°28'713.8
2018-Dec-07 10:01N 50°02' W 001°38'714.2
2018-Dec-07 09:30N 50°01' W 001°49'715.0
2018-Dec-07 09:01N 49°59' W 002°00'815.9
2018-Dec-07 08:30N 49°57' W 002°12'2515.1
2018-Dec-07 06:51N 49°50' W 002°49'3214.5
2018-Dec-07 04:39N 49°32' W 003°31'7613.7
2018-Dec-06 23:07N 48°55' W 005°12'212.4
2018-Dec-06 22:59N 48°54' W 005°14'612.2
2018-Dec-06 22:30N 48°51' W 005°22'612.1
2018-Dec-06 22:00N 48°48' W 005°29'1711.4
2018-Dec-06 20:33N 48°34' W 005°44'1411.7
2018-Dec-06 19:19N 48°22' W 005°55'56113.1
2018-Dec-05 00:30N 39°27' W 009°50'814.2
2018-Dec-04 23:56N 39°19' W 009°50'614.5
2018-Dec-04 23:30N 39°13' W 009°50'714.6
2018-Dec-04 23:00N 39°05' W 009°50'714.4
2018-Dec-04 22:30N 38°58' W 009°50'714.6
2018-Dec-04 22:01N 38°51' W 009°51'714.7
2018-Dec-04 21:30N 38°43' W 009°51'612.7
2018-Dec-04 21:00N 38°38' W 009°47'713.6
2018-Dec-04 20:30N 38°37' W 009°38'713.9
2018-Dec-04 20:01N 38°37' W 009°29'713.3
2018-Dec-04 19:31N 38°39' W 009°21'713.2
2018-Dec-04 19:00N 38°41' W 009°13'5 9.6
2018-Dec-04 18:30N 38°43' W 009°07'0 0.2
2018-Dec-04 17:58N 38°43' W 009°07'0 0.0
2018-Dec-04 17:28N 38°43' W 009°07'0 0.0
2018-Dec-04 16:58N 38°43' W 009°07'0 0.0
2018-Dec-04 16:19N 38°43' W 009°07'0 0.0
2018-Dec-04 15:58N 38°43' W 009°07'0 0.0
2018-Dec-04 15:28N 38°43' W 009°07'0 0.0
2018-Dec-04 14:58N 38°43' W 009°07'0 0.0
2018-Dec-04 14:28N 38°43' W 009°07'0 0.0
2018-Dec-04 13:58N 38°43' W 009°07'0 0.0
2018-Dec-04 13:28N 38°43' W 009°07'0 0.0
2018-Dec-04 12:58N 38°43' W 009°07'0 0.0
2018-Dec-04 12:28N 38°43' W 009°07'0 0.0
2018-Dec-04 11:58N 38°43' W 009°07'0 0.0
2018-Dec-04 11:28N 38°43' W 009°07'0 0.0
2018-Dec-04 10:58N 38°43' W 009°07'0 0.0
2018-Dec-04 10:28N 38°43' W 009°07'0 0.0
2018-Dec-04 09:55N 38°43' W 009°07'0 0.0
2018-Dec-04 09:28N 38°43' W 009°07'0 0.0
2018-Dec-04 08:58N 38°43' W 009°07'0 0.0
2018-Dec-04 08:28N 38°43' W 009°07'0 0.0
2018-Dec-04 07:58N 38°43' W 009°07'0 0.0
2018-Dec-04 07:28N 38°43' W 009°07'0 0.0
2018-Dec-04 06:52N 38°43' W 009°07'0 0.0
2018-Dec-04 06:25N 38°43' W 009°07'0 0.0
2018-Dec-04 06:01N 38°43' W 009°07'0 0.0
2018-Dec-04 05:30N 38°43' W 009°07'0 0.0
2018-Dec-04 05:00N 38°43' W 009°07'0 0.0
2018-Dec-04 04:31N 38°43' W 009°07'0 0.0
2018-Dec-04 04:00N 38°43' W 009°07'1 2.8
2018-Dec-04 03:30N 38°42' W 009°09'510.3
2018-Dec-04 03:01N 38°41' W 009°15'510.2
2018-Dec-04 02:30N 38°38' W 009°21'713.2
2018-Dec-04 02:00N 38°35' W 009°28'714.3
2018-Dec-04 01:30N 38°31' W 009°36'714.5
2018-Dec-04 01:00N 38°27' W 009°44'714.6
2018-Dec-04 00:30N 38°23' W 009°51'715.0
2018-Dec-04 00:00N 38°19' W 009°59'715.0
2018-Dec-03 23:30N 38°15' W 010°07'714.7
2018-Dec-03 23:00N 38°11' W 010°15'814.7
2018-Dec-03 22:29N 38°07' W 010°23'714.7
2018-Dec-03 22:00N 38°03' W 010°31'714.5
2018-Dec-03 21:30N 37°59' W 010°39'814.9
2018-Dec-03 20:58N 37°55' W 010°47'716.0
2018-Dec-03 20:30N 37°51' W 010°55'1616.4
2018-Dec-03 19:31N 37°42' W 011°12'016.5
2018-Dec-03 19:30N 37°42' W 011°13'  

Dump ship's entire track history